createdAt,value
2023-03-15T00:01:21.579Z,58.62
2023-03-15T00:03:49.280Z,58.96
2023-03-15T00:06:17.259Z,60.37
2023-03-15T00:08:48.106Z,59.56
2023-03-15T00:11:17.056Z,60.87
2023-03-15T00:13:45.727Z,60.36
2023-03-15T00:16:18.781Z,60.33
2023-03-15T00:18:47.441Z,60.74
2023-03-15T00:21:15.250Z,60.97
2023-03-15T00:23:42.842Z,60.89
2023-03-15T00:26:10.583Z,61.67
2023-03-15T00:28:37.832Z,61.30
2023-03-15T00:31:10.219Z,61.17
2023-03-15T00:33:38.600Z,60.51
2023-03-15T00:36:08.290Z,60.30
2023-03-15T00:38:37.140Z,60.65
2023-03-15T00:41:23.751Z,60.37
2023-03-15T00:43:52.461Z,61.93
2023-03-15T00:46:20.800Z,60.91
2023-03-15T00:48:50.076Z,61.28
2023-03-15T00:51:23.933Z,61.84
2023-03-15T00:53:53.972Z,61.35
2023-03-15T00:56:24.992Z,59.82
2023-03-15T00:58:55.388Z,59.65
2023-03-15T01:01:25.949Z,61.08
2023-03-15T01:03:54.443Z,61.83
2023-03-15T01:06:24.650Z,61.51
2023-03-15T01:08:52.861Z,61.51
2023-03-15T01:11:24.546Z,60.72
2023-03-15T01:13:53.205Z,60.95
2023-03-15T01:16:22.871Z,60.63
2023-03-15T01:18:51.863Z,60.93
2023-03-15T01:21:21.700Z,60.68
2023-03-15T01:23:50.182Z,61.39
2023-03-15T01:26:18.686Z,61.91
2023-03-15T01:28:46.964Z,61.19
2023-03-15T01:31:20.746Z,61.63
2023-03-15T01:33:48.208Z,62.20
2023-03-15T01:36:16.579Z,63.04
2023-03-15T01:38:44.323Z,62.68
2023-03-15T01:41:13.257Z,63.00
2023-03-15T01:43:47.574Z,61.54
2023-03-15T01:46:24.418Z,61.56
2023-03-15T01:48:57.788Z,61.56
2023-03-15T01:51:25.712Z,61.70
2023-03-15T01:54:00.886Z,62.20
2023-03-15T01:56:30.560Z,62.31
2023-03-15T01:58:59.345Z,63.69
2023-03-15T02:01:27.442Z,62.90
2023-03-15T02:04:02.671Z,63.55
2023-03-15T02:06:35.092Z,63.82
2023-03-15T02:09:15.052Z,64.00
2023-03-15T02:11:43.684Z,63.75
2023-03-15T02:14:13.551Z,64.58
2023-03-15T02:16:41.475Z,63.27
2023-03-15T02:19:26.026Z,62.94
2023-03-15T02:22:16.434Z,62.59
2023-03-15T02:25:17.410Z,61.87
2023-03-15T02:27:45.633Z,62.62
2023-03-15T02:30:15.122Z,63.83
2023-03-15T02:32:42.723Z,64.22
2023-03-15T02:35:10.536Z,64.28
2023-03-15T02:37:37.946Z,64.04
2023-03-15T02:40:18.559Z,64.23
2023-03-15T02:42:48.793Z,64.05
2023-03-15T02:45:18.197Z,64.93
2023-03-15T02:47:47.376Z,65.23
2023-03-15T02:50:14.661Z,65.36
2023-03-15T02:52:41.928Z,65.49
2023-03-15T02:55:09.911Z,65.40
2023-03-15T02:57:37.288Z,66.10
2023-03-15T03:00:11.936Z,65.84
2023-03-15T03:02:40.318Z,66.14
2023-03-15T03:05:10.235Z,65.52
2023-03-15T03:07:37.815Z,66.37
2023-03-15T03:10:07.398Z,66.40
2023-03-15T03:12:37.267Z,65.83
2023-03-15T03:15:05.268Z,66.32
2023-03-15T03:17:37.470Z,66.27
2023-03-15T03:20:10.368Z,66.63
2023-03-15T03:22:39.151Z,66.29
2023-03-15T03:25:08.236Z,67.14
2023-03-15T03:27:36.974Z,67.20
2023-03-15T03:30:08.144Z,67.13
2023-03-15T03:32:36.071Z,66.56
2023-03-15T03:35:03.756Z,65.99
2023-03-15T03:37:36.046Z,66.02
2023-03-15T03:40:07.074Z,66.60
2023-03-15T03:42:35.612Z,66.13
2023-03-15T03:45:03.402Z,66.54
2023-03-15T03:47:31.009Z,68.07
2023-03-15T03:49:58.745Z,67.86
2023-03-15T03:52:26.732Z,67.01
2023-03-15T03:54:54.798Z,66.53
2023-03-15T03:57:22.525Z,66.40
2023-03-15T03:59:52.711Z,66.88
2023-03-15T04:02:20.128Z,67.39
2023-03-15T04:04:50.504Z,67.03
2023-03-15T04:07:18.201Z,66.37
2023-03-15T04:09:45.543Z,66.61
2023-03-15T04:12:13.691Z,66.49
2023-03-15T04:14:42.041Z,66.41
2023-03-15T04:17:10.366Z,66.54
2023-03-15T04:19:38.444Z,65.47
2023-03-15T04:22:07.028Z,66.91
2023-03-15T04:24:35.453Z,69.05
2023-03-15T04:27:04.141Z,67.89
2023-03-15T04:29:31.937Z,67.38
2023-03-15T04:32:01.738Z,67.63
2023-03-15T04:34:30.764Z,68.08
2023-03-15T04:36:58.295Z,69.00
2023-03-15T04:39:26.477Z,69.45
2023-03-15T04:41:55.753Z,68.80
2023-03-15T04:44:26.718Z,67.62
2023-03-15T04:46:55.702Z,67.46
2023-03-15T04:49:23.677Z,67.58
2023-03-15T04:51:51.356Z,69.44
2023-03-15T04:54:19.169Z,69.50
2023-03-15T04:56:49.994Z,69.17
2023-03-15T04:59:17.482Z,69.18
2023-03-15T05:01:45.523Z,68.82
2023-03-15T05:04:13.624Z,68.69
2023-03-15T05:06:42.544Z,69.34
2023-03-15T05:09:10.226Z,68.98
2023-03-15T05:11:38.245Z,68.23
2023-03-15T05:14:05.756Z,68.66
2023-03-15T05:16:33.467Z,68.58
2023-03-15T05:19:01.279Z,68.54
2023-03-15T05:21:29.821Z,68.25
2023-03-15T05:23:57.437Z,67.76
2023-03-15T05:26:26.367Z,67.44
2023-03-15T05:28:54.478Z,66.63
2023-03-15T05:31:22.632Z,67.20
2023-03-15T05:33:50.587Z,66.57
2023-03-15T05:36:20.379Z,66.20
2023-03-15T05:38:48.730Z,68.24
2023-03-15T05:41:18.393Z,68.59
2023-03-15T05:43:45.982Z,69.37
2023-03-15T05:46:13.827Z,68.78
2023-03-15T05:48:43.680Z,68.74
2023-03-15T05:51:13.377Z,68.49
2023-03-15T05:53:40.871Z,68.97
2023-03-15T05:56:09.825Z,67.97
2023-03-15T05:58:37.676Z,68.14
2023-03-15T06:01:05.568Z,67.79
2023-03-15T06:03:34.390Z,67.49
2023-03-15T06:06:03.709Z,68.20
2023-03-15T06:08:32.028Z,67.24
2023-03-15T06:11:00.886Z,67.15
2023-03-15T06:13:28.500Z,67.63
2023-03-15T06:15:56.244Z,65.65
2023-03-15T06:18:24.204Z,65.79
2023-03-15T06:20:51.931Z,65.64
2023-03-15T06:23:19.672Z,65.19
2023-03-15T06:25:47.406Z,65.02
2023-03-15T06:28:15.058Z,66.59
2023-03-15T06:30:42.760Z,66.71
2023-03-15T06:33:10.507Z,65.98
2023-03-15T06:35:37.890Z,64.24
2023-03-15T06:38:05.380Z,63.51
2023-03-15T06:40:33.074Z,62.09
2023-03-15T06:43:06.116Z,61.40
2023-03-15T06:45:34.181Z,61.27
2023-03-15T06:48:02.124Z,61.56
2023-03-15T06:50:44.186Z,59.99
2023-03-15T06:53:14.408Z,59.70
2023-03-15T06:55:41.890Z,59.71
2023-03-15T06:58:09.359Z,59.67
2023-03-15T07:00:37.606Z,59.29
2023-03-15T07:03:05.138Z,59.47
2023-03-15T07:05:32.580Z,60.17
2023-03-15T07:08:00.345Z,60.27
2023-03-15T07:10:27.760Z,59.19
2023-03-15T07:12:55.218Z,58.50
2023-03-15T07:15:23.126Z,58.13
2023-03-15T07:17:50.557Z,57.06
2023-03-15T07:20:18.057Z,57.21
2023-03-15T07:22:45.856Z,55.96
2023-03-15T07:25:13.466Z,54.64
2023-03-15T07:27:40.887Z,54.99
2023-03-15T07:30:09.985Z,55.87
2023-03-15T07:32:39.191Z,55.66
2023-03-15T07:35:07.029Z,54.79
2023-03-15T07:37:34.860Z,53.92
2023-03-15T07:40:10.040Z,53.34
2023-03-15T07:42:38.027Z,51.96
2023-03-15T07:45:07.049Z,51.85
2023-03-15T07:47:35.243Z,51.70
2023-03-15T07:50:04.101Z,51.89
2023-03-15T07:52:31.526Z,51.72
2023-03-15T07:54:59.725Z,52.19
2023-03-15T07:57:28.948Z,51.04
2023-03-15T07:59:56.371Z,51.44
2023-03-15T08:02:23.831Z,51.13
2023-03-15T08:04:51.657Z,49.70
2023-03-15T08:07:19.359Z,49.51
2023-03-15T08:09:46.692Z,50.50
2023-03-15T08:12:14.551Z,50.20
2023-03-15T08:14:41.920Z,49.97
2023-03-15T08:17:13.219Z,49.35
2023-03-15T08:19:41.126Z,47.47
2023-03-15T08:22:08.622Z,46.76
2023-03-15T08:24:36.870Z,47.16
2023-03-15T08:27:05.277Z,45.39
2023-03-15T08:29:32.664Z,46.81
2023-03-15T08:32:00.157Z,45.00
2023-03-15T08:34:28.019Z,45.70
2023-03-15T08:36:55.415Z,44.83
2023-03-15T08:39:24.207Z,44.44
2023-03-15T08:41:51.866Z,43.93
2023-03-15T08:44:19.328Z,44.31
2023-03-15T08:46:46.866Z,44.72
2023-03-15T08:49:14.617Z,45.09
2023-03-15T08:51:41.975Z,45.15
2023-03-15T08:54:09.429Z,44.04
2023-03-15T08:56:37.244Z,44.52
2023-03-15T08:59:04.570Z,43.70
2023-03-15T09:01:31.943Z,43.73
2023-03-15T09:03:59.719Z,43.34
2023-03-15T09:06:28.017Z,43.80
2023-03-15T09:08:55.686Z,44.61
2023-03-15T09:11:23.435Z,44.62
2023-03-15T09:13:51.865Z,44.41
2023-03-15T09:16:19.325Z,44.64
2023-03-15T09:18:47.029Z,43.26
2023-03-15T09:21:14.382Z,44.53
2023-03-15T09:23:41.790Z,44.19
2023-03-15T09:26:09.535Z,45.06
2023-03-15T09:28:37.215Z,44.92
2023-03-15T09:31:06.848Z,45.39
2023-03-15T09:33:34.752Z,45.82
2023-03-15T09:36:02.134Z,45.71
2023-03-15T09:38:29.648Z,46.00
2023-03-15T09:41:00.510Z,46.19
2023-03-15T09:43:48.517Z,45.35
2023-03-15T09:46:34.157Z,45.25
2023-03-15T09:49:13.986Z,44.69
2023-03-15T09:51:51.155Z,44.20
2023-03-15T09:54:25.061Z,45.18
2023-03-15T09:57:02.283Z,44.49
2023-03-15T09:59:37.726Z,44.97
2023-03-15T10:02:21.830Z,43.55
2023-03-15T10:04:56.135Z,43.56
2023-03-15T10:07:23.557Z,44.10
2023-03-15T10:09:51.419Z,44.80
2023-03-15T10:12:44.169Z,45.15
2023-03-15T10:15:38.789Z,45.76
2023-03-15T10:18:32.837Z,45.64
2023-03-15T10:21:12.047Z,45.38
2023-03-15T10:23:44.248Z,46.24
2023-03-15T10:26:19.120Z,46.71
2023-03-15T10:28:46.816Z,46.45
2023-03-15T10:31:25.852Z,46.85
2023-03-15T10:34:00.122Z,47.40
2023-03-15T10:36:27.878Z,46.72
2023-03-15T10:38:55.345Z,47.29
2023-03-15T10:41:39.234Z,47.37
2023-03-15T10:44:17.772Z,47.26
2023-03-15T10:47:07.050Z,46.94
2023-03-15T10:49:41.567Z,47.90
2023-03-15T10:52:31.943Z,47.47
2023-03-15T10:55:04.659Z,47.38
2023-03-15T10:57:37.225Z,47.86
2023-03-15T11:00:21.060Z,48.11
2023-03-15T11:02:51.160Z,47.74
2023-03-15T11:05:19.778Z,48.13
2023-03-15T11:07:58.466Z,46.82
2023-03-15T11:10:35.021Z,47.51
2023-03-15T11:13:14.650Z,47.62
2023-03-15T11:15:54.733Z,47.13
2023-03-15T11:18:33.238Z,47.05
2023-03-15T11:21:05.272Z,46.14
2023-03-15T11:23:37.201Z,46.19
2023-03-15T11:26:06.493Z,45.96
2023-03-15T11:28:37.600Z,46.05
2023-03-15T11:31:05.777Z,45.81
2023-03-15T11:33:56.546Z,45.59
2023-03-15T11:36:30.249Z,44.88
2023-03-15T11:39:02.920Z,45.72
2023-03-15T11:41:41.295Z,46.04
2023-03-15T11:44:34.158Z,44.41
2023-03-15T11:47:10.732Z,44.13
2023-03-15T11:49:48.666Z,43.87
2023-03-15T11:52:18.152Z,44.07
2023-03-15T11:54:46.393Z,44.51
2023-03-15T11:57:28.990Z,43.46
2023-03-15T11:59:57.830Z,43.71
2023-03-15T12:02:26.519Z,43.73
2023-03-15T12:04:57.079Z,43.42
2023-03-15T12:07:36.538Z,43.51
2023-03-15T12:10:04.277Z,42.99
2023-03-15T12:12:31.659Z,42.75
2023-03-15T12:15:05.578Z,42.21
2023-03-15T12:17:40.645Z,42.39
2023-03-15T12:20:14.159Z,42.60
2023-03-15T12:22:48.309Z,42.13
2023-03-15T12:25:48.855Z,42.84
2023-03-15T12:28:30.564Z,41.78
2023-03-15T12:31:02.206Z,41.31
2023-03-15T12:33:32.524Z,41.85
2023-03-15T12:36:09.929Z,41.52
2023-03-15T12:38:41.954Z,40.83
2023-03-15T12:41:37.180Z,40.87
2023-03-15T12:44:34.277Z,42.27
2023-03-15T12:47:06.643Z,41.85
2023-03-15T12:49:46.132Z,41.78
2023-03-15T12:52:16.232Z,42.04
2023-03-15T12:55:12.538Z,42.00
2023-03-15T12:57:47.961Z,41.66
2023-03-15T13:00:22.574Z,42.51
2023-03-15T13:03:16.697Z,43.13
2023-03-15T13:06:06.847Z,43.33
2023-03-15T13:08:45.363Z,42.72
2023-03-15T13:11:13.046Z,41.65
2023-03-15T13:14:21.511Z,42.32
2023-03-15T13:17:18.520Z,43.00
2023-03-15T13:19:50.510Z,42.42
2023-03-15T13:22:32.049Z,42.70
2023-03-15T13:25:05.380Z,42.65
2023-03-15T13:27:38.296Z,42.84
2023-03-15T13:30:39.579Z,42.27
2023-03-15T13:33:21.542Z,41.90
2023-03-15T13:36:01.460Z,44.87
2023-03-15T13:38:35.562Z,47.14
2023-03-15T13:41:16.220Z,47.06
2023-03-15T13:43:44.736Z,47.33
2023-03-15T13:46:12.453Z,47.65
2023-03-15T13:48:44.873Z,48.83
2023-03-15T13:51:28.028Z,49.17
2023-03-15T13:54:07.601Z,49.56
2023-03-15T13:57:03.602Z,50.32
2023-03-15T13:59:40.917Z,49.69
2023-03-15T14:02:18.155Z,49.72
2023-03-15T14:04:52.465Z,48.19
2023-03-15T14:07:38.883Z,48.60
2023-03-15T14:10:18.709Z,48.18
2023-03-15T14:12:46.434Z,45.55
2023-03-15T14:15:34.647Z,43.85
2023-03-15T14:18:17.156Z,43.48
2023-03-15T14:20:48.127Z,44.10
2023-03-15T14:23:18.203Z,44.36
2023-03-15T14:26:14.049Z,43.72
2023-03-15T14:28:42.501Z,44.39
2023-03-15T14:31:23.530Z,43.66
2023-03-15T14:34:05.209Z,44.01
2023-03-15T14:36:45.014Z,45.04
2023-03-15T14:39:19.999Z,43.82
2023-03-15T14:41:47.720Z,45.10
2023-03-15T14:44:15.194Z,44.95
2023-03-15T14:46:42.893Z,44.41
2023-03-15T14:49:22.342Z,43.59
2023-03-15T14:51:52.465Z,44.85
2023-03-15T14:54:20.382Z,43.62
2023-03-15T14:56:47.819Z,43.76
2023-03-15T14:59:15.274Z,43.02
2023-03-15T15:01:48.449Z,42.51
2023-03-15T15:04:16.244Z,42.91
2023-03-15T15:06:51.205Z,42.75
2023-03-15T15:09:28.747Z,43.38
2023-03-15T15:11:56.821Z,43.70
2023-03-15T15:14:24.672Z,43.81
2023-03-15T15:16:52.534Z,43.51
2023-03-15T15:19:20.437Z,43.29
2023-03-15T15:21:47.907Z,44.07
2023-03-15T15:24:18.649Z,42.81
2023-03-15T15:26:47.435Z,43.26
2023-03-15T15:29:16.802Z,45.11
2023-03-15T15:31:45.815Z,46.25
2023-03-15T15:34:13.763Z,47.42
2023-03-15T15:36:45.640Z,49.79
2023-03-15T15:39:24.672Z,50.42
2023-03-15T15:41:52.588Z,51.32
2023-03-15T15:44:22.784Z,51.25
2023-03-15T15:46:50.245Z,51.80
2023-03-15T15:49:19.579Z,52.24
2023-03-15T15:51:51.593Z,52.71
2023-03-15T15:54:25.279Z,52.88
2023-03-15T15:56:56.766Z,52.97
2023-03-15T15:59:27.727Z,53.54
2023-03-15T16:02:01.207Z,53.59
2023-03-15T16:04:30.539Z,54.06
2023-03-15T16:07:03.719Z,54.27
2023-03-15T16:09:36.291Z,54.52
2023-03-15T16:12:14.892Z,54.05
2023-03-15T16:14:43.089Z,54.96
2023-03-15T16:17:18.439Z,55.03
2023-03-15T16:19:46.103Z,54.60
2023-03-15T16:22:13.877Z,54.94
2023-03-15T16:24:45.541Z,55.64
2023-03-15T16:27:16.064Z,56.20
2023-03-15T16:29:47.657Z,55.44
2023-03-15T16:32:32.947Z,56.20
2023-03-15T16:35:06.055Z,56.41
2023-03-15T16:37:33.705Z,58.03
2023-03-15T16:40:01.961Z,58.34
2023-03-15T16:42:29.433Z,58.31
2023-03-15T16:44:57.192Z,58.52
2023-03-15T16:47:24.539Z,59.05
2023-03-15T16:49:51.914Z,59.25
2023-03-15T16:52:22.599Z,60.27
2023-03-15T16:54:49.996Z,61.05
2023-03-15T16:57:22.321Z,59.81
2023-03-15T16:59:50.841Z,59.60
2023-03-15T17:02:24.375Z,59.52
2023-03-15T17:04:53.186Z,59.19
2023-03-15T17:07:34.081Z,59.40
2023-03-15T17:10:08.626Z,59.71
2023-03-15T17:12:37.672Z,59.83
2023-03-15T17:15:06.459Z,60.35
2023-03-15T17:17:36.284Z,59.77
2023-03-15T17:20:10.330Z,59.72
2023-03-15T17:22:38.158Z,60.52
2023-03-15T17:25:05.850Z,59.87
2023-03-15T17:27:40.273Z,60.70
2023-03-15T17:30:23.382Z,61.66
2023-03-15T17:32:51.224Z,61.39
2023-03-15T17:35:20.275Z,61.46
2023-03-15T17:37:48.577Z,62.18
2023-03-15T17:40:29.685Z,61.95
2023-03-15T17:42:59.837Z,61.65
2023-03-15T17:45:29.867Z,62.78
2023-03-15T17:47:58.158Z,62.43
2023-03-15T17:50:28.821Z,63.55
2023-03-15T17:53:05.561Z,64.00
2023-03-15T17:55:36.320Z,65.11
2023-03-15T17:58:10.991Z,65.75
2023-03-15T18:00:39.213Z,66.69
2023-03-15T18:03:07.034Z,67.46
2023-03-15T18:05:34.406Z,68.28
2023-03-15T18:08:04.104Z,69.27
2023-03-15T18:10:37.001Z,68.96
2023-03-15T18:13:05.132Z,70.92
2023-03-15T18:15:34.172Z,71.19
2023-03-15T18:18:07.347Z,71.14
2023-03-15T18:20:37.895Z,72.39
2023-03-15T18:23:05.683Z,73.38
2023-03-15T18:25:35.488Z,73.08
2023-03-15T18:28:09.775Z,73.42
2023-03-15T18:30:37.330Z,72.22
2023-03-15T18:33:05.986Z,73.36
2023-03-15T18:35:36.653Z,73.18
2023-03-15T18:38:05.476Z,75.27
2023-03-15T18:40:34.988Z,75.05
2023-03-15T18:43:04.301Z,76.61
2023-03-15T18:45:32.808Z,78.33
2023-03-15T18:48:02.331Z,78.93
2023-03-15T18:50:30.878Z,80.35
2023-03-15T18:52:58.641Z,82.14
2023-03-15T18:55:26.943Z,82.13
2023-03-15T18:57:55.976Z,82.30
2023-03-15T19:00:26.308Z,82.26
2023-03-15T19:03:02.911Z,81.82
2023-03-15T19:05:42.046Z,82.85
2023-03-15T19:08:12.643Z,83.72
2023-03-15T19:10:40.290Z,83.84
2023-03-15T19:13:07.954Z,84.04
2023-03-15T19:15:36.401Z,84.39
2023-03-15T19:18:05.608Z,84.44
2023-03-15T19:20:35.107Z,83.90
2023-03-15T19:23:03.152Z,83.72
2023-03-15T19:25:30.694Z,83.64
2023-03-15T19:27:58.216Z,85.37
2023-03-15T19:30:27.680Z,85.37
2023-03-15T19:32:55.237Z,84.43
2023-03-15T19:35:22.638Z,84.42
2023-03-15T19:37:50.609Z,85.33
2023-03-15T19:40:19.444Z,85.14
2023-03-15T19:42:48.838Z,83.46
2023-03-15T19:45:17.746Z,83.19
2023-03-15T19:47:45.400Z,84.41
2023-03-15T19:50:14.553Z,84.52
2023-03-15T19:52:46.297Z,83.38
2023-03-15T19:55:16.397Z,83.99
2023-03-15T19:57:45.081Z,86.16
2023-03-15T20:00:17.215Z,87.59
2023-03-15T20:02:45.732Z,86.84
2023-03-15T20:05:15.507Z,86.45
2023-03-15T20:07:43.817Z,86.33
2023-03-15T20:10:12.909Z,86.09
2023-03-15T20:12:42.876Z,85.25
2023-03-15T20:15:11.943Z,84.10
2023-03-15T20:17:40.148Z,85.41
2023-03-15T20:20:11.568Z,86.47
2023-03-15T20:22:41.546Z,87.05
2023-03-15T20:25:15.342Z,86.59
2023-03-15T20:27:43.468Z,86.04
2023-03-15T20:30:12.911Z,86.19
2023-03-15T20:32:40.928Z,86.52
2023-03-15T20:35:09.705Z,87.13
2023-03-15T20:37:40.640Z,86.61
2023-03-15T20:40:11.551Z,86.72
2023-03-15T20:42:39.808Z,87.56
2023-03-15T20:45:09.797Z,87.48
2023-03-15T20:47:38.314Z,87.45
2023-03-15T20:50:07.984Z,86.98
2023-03-15T20:52:35.523Z,87.09
2023-03-15T20:55:03.884Z,87.41
2023-03-15T20:57:31.704Z,87.04
2023-03-15T20:59:59.736Z,86.11
2023-03-15T21:02:27.157Z,86.51
2023-03-15T21:04:54.942Z,86.79
2023-03-15T21:07:22.293Z,86.64
2023-03-15T21:09:49.970Z,87.75
2023-03-15T21:12:19.447Z,88.28
2023-03-15T21:14:46.826Z,88.22
2023-03-15T21:17:14.641Z,87.44
2023-03-15T21:19:42.305Z,85.84
2023-03-15T21:22:09.915Z,86.51
2023-03-15T21:24:49.440Z,87.71
2023-03-15T21:27:22.755Z,88.17
2023-03-15T21:29:50.141Z,88.40
2023-03-15T21:32:17.525Z,88.29
2023-03-15T21:34:45.261Z,87.18
2023-03-15T21:37:12.707Z,88.68
2023-03-15T21:39:40.060Z,89.15
2023-03-15T21:42:08.036Z,87.58
2023-03-15T21:44:36.455Z,88.79
2023-03-15T21:47:04.994Z,90.15
2023-03-15T21:49:32.957Z,91.74
2023-03-15T21:52:00.406Z,89.84
2023-03-15T21:54:27.939Z,91.79
2023-03-15T21:56:56.112Z,91.63
2023-03-15T21:59:29.918Z,90.81
2023-03-15T22:01:57.781Z,93.33
2023-03-15T22:04:25.523Z,93.66
2023-03-15T22:06:53.396Z,91.86
2023-03-15T22:09:23.606Z,93.36
2023-03-15T22:11:51.671Z,93.08
2023-03-15T22:14:19.272Z,93.18
2023-03-15T22:16:46.678Z,91.38
2023-03-15T22:19:14.719Z,93.25
2023-03-15T22:21:42.464Z,91.41
2023-03-15T22:24:10.812Z,92.61
2023-03-15T22:26:38.509Z,91.22
2023-03-15T22:29:05.833Z,91.18
2023-03-15T22:31:33.528Z,92.05
2023-03-15T22:34:02.953Z,91.69
2023-03-15T22:36:35.015Z,93.66
2023-03-15T22:39:03.697Z,92.49
2023-03-15T22:41:31.084Z,90.81
2023-03-15T22:43:58.360Z,91.70
2023-03-15T22:46:27.184Z,91.72
2023-03-15T22:48:54.843Z,90.20
2023-03-15T22:51:22.219Z,91.75
2023-03-15T22:53:49.941Z,92.69
2023-03-15T22:56:17.377Z,91.65
2023-03-15T22:58:44.736Z,89.50
2023-03-15T23:01:12.511Z,90.59
2023-03-15T23:03:39.950Z,91.19
2023-03-15T23:06:07.243Z,87.58
2023-03-15T23:12:35.866Z,92.38
2023-03-15T23:15:04.978Z,90.51
2023-03-15T23:17:32.654Z,88.45
2023-03-15T23:20:00.106Z,90.16
2023-03-15T23:22:27.748Z,89.24
2023-03-15T23:24:58.334Z,87.98
2023-03-15T23:27:26.284Z,90.10
2023-03-15T23:29:55.485Z,88.88
2023-03-15T23:32:27.580Z,89.06
2023-03-15T23:34:56.759Z,88.60
2023-03-15T23:37:24.945Z,86.20
2023-03-15T23:39:53.650Z,86.59
2023-03-15T23:42:26.046Z,86.05
2023-03-15T23:44:55.185Z,87.45
2023-03-15T23:47:26.178Z,86.07
2023-03-15T23:49:53.797Z,86.19
2023-03-15T23:52:25.594Z,84.92
2023-03-15T23:58:45.994Z,87.62
